sensor_id;sensor_type;location;lat;lon;timestamp;pressure;altitude;pressure_sealevel;temperature;humidity
70900;BME280;67902;52.154;5.430;2024-01-25T00:01:37;102833.44;;;7.49;88.60
70900;BME280;67902;52.154;5.430;2024-01-25T00:04:04;102825.88;;;7.44;88.46
70900;BME280;67902;52.154;5.430;2024-01-25T00:06:31;102826.56;;;7.38;89.27
70900;BME280;67902;52.154;5.430;2024-01-25T00:08:58;102831.94;;;7.38;89.39
70900;BME280;67902;52.154;5.430;2024-01-25T00:11:24;102833.84;;;7.38;89.81
70900;BME280;67902;52.154;5.430;2024-01-25T00:13:51;102836.03;;;7.34;89.09
70900;BME280;67902;52.154;5.430;2024-01-25T00:16:17;102854.56;;;7.29;89.32
70900;BME280;67902;52.154;5.430;2024-01-25T00:18:44;102839.75;;;7.25;89.27
70900;BME280;67902;52.154;5.430;2024-01-25T00:21:11;102840.94;;;7.23;90.38
70900;BME280;67902;52.154;5.430;2024-01-25T00:23:38;102837.41;;;7.22;90.03
70900;BME280;67902;52.154;5.430;2024-01-25T00:26:04;102839.44;;;7.20;90.23
70900;BME280;67902;52.154;5.430;2024-01-25T00:28:31;102840.97;;;7.15;90.92
70900;BME280;67902;52.154;5.430;2024-01-25T00:31:02;102835.06;;;7.11;90.79
70900;BME280;67902;52.154;5.430;2024-01-25T00:33:29;102836.44;;;7.07;90.80
70900;BME280;67902;52.154;5.430;2024-01-25T00:35:56;102832.06;;;7.06;91.23
70900;BME280;67902;52.154;5.430;2024-01-25T00:38:26;102842.00;;;7.06;91.45
70900;BME280;67902;52.154;5.430;2024-01-25T00:40:53;102843.19;;;7.03;91.74
70900;BME280;67902;52.154;5.430;2024-01-25T00:43:21;102844.19;;;7.02;91.61
70900;BME280;67902;52.154;5.430;2024-01-25T00:45:48;102841.81;;;6.99;91.98
70900;BME280;67902;52.154;5.430;2024-01-25T00:48:15;102848.75;;;6.93;91.51
70900;BME280;67902;52.154;5.430;2024-01-25T00:50:42;102855.84;;;6.86;92.23
70900;BME280;67902;52.154;5.430;2024-01-25T00:53:09;102855.50;;;6.81;92.29
70900;BME280;67902;52.154;5.430;2024-01-25T00:55:36;102864.06;;;6.85;92.45
70900;BME280;67902;52.154;5.430;2024-01-25T00:58:03;102852.81;;;6.81;92.75
70900;BME280;67902;52.154;5.430;2024-01-25T01:00:30;102863.91;;;6.78;92.51
70900;BME280;67902;52.154;5.430;2024-01-25T01:02:58;102867.63;;;6.69;92.89
70900;BME280;67902;52.154;5.430;2024-01-25T01:05:27;102869.97;;;6.64;92.99
70900;BME280;67902;52.154;5.430;2024-01-25T01:07:55;102862.56;;;6.66;93.53
70900;BME280;67902;52.154;5.430;2024-01-25T01:10:22;102860.41;;;6.62;93.31
70900;BME280;67902;52.154;5.430;2024-01-25T01:12:49;102868.63;;;6.60;93.98
70900;BME280;67902;52.154;5.430;2024-01-25T01:15:21;102873.53;;;6.57;94.28
70900;BME280;67902;52.154;5.430;2024-01-25T01:17:47;102870.00;;;6.56;94.26
70900;BME280;67902;52.154;5.430;2024-01-25T01:20:14;102873.84;;;6.54;94.31
70900;BME280;67902;52.154;5.430;2024-01-25T01:22:41;102870.47;;;6.52;94.28
70900;BME280;67902;52.154;5.430;2024-01-25T01:25:07;102875.19;;;6.50;94.15
70900;BME280;67902;52.154;5.430;2024-01-25T01:27:34;102878.53;;;6.43;94.53
70900;BME280;67902;52.154;5.430;2024-01-25T01:30:01;102876.88;;;6.43;94.44
70900;BME280;67902;52.154;5.430;2024-01-25T01:32:28;102881.75;;;6.39;94.41
70900;BME280;67902;52.154;5.430;2024-01-25T01:34:54;102883.41;;;6.32;94.61
70900;BME280;67902;52.154;5.430;2024-01-25T01:37:22;102890.97;;;6.28;95.10
70900;BME280;67902;52.154;5.430;2024-01-25T01:39:48;102885.75;;;6.27;95.12
70900;BME280;67902;52.154;5.430;2024-01-25T01:42:17;102882.41;;;6.25;95.28
70900;BME280;67902;52.154;5.430;2024-01-25T01:44:43;102883.06;;;6.19;95.41
70900;BME280;67902;52.154;5.430;2024-01-25T01:47:10;102878.66;;;6.18;95.92
70900;BME280;67902;52.154;5.430;2024-01-25T01:49:36;102882.72;;;6.14;96.12
70900;BME280;67902;52.154;5.430;2024-01-25T01:52:03;102893.81;;;6.11;96.06
70900;BME280;67902;52.154;5.430;2024-01-25T01:54:31;102885.56;;;6.12;96.62
70900;BME280;67902;52.154;5.430;2024-01-25T01:56:58;102891.78;;;6.13;96.40
70900;BME280;67902;52.154;5.430;2024-01-25T01:59:24;102890.44;;;6.09;96.52
70900;BME280;67902;52.154;5.430;2024-01-25T02:01:52;102898.31;;;6.02;96.60
70900;BME280;67902;52.154;5.430;2024-01-25T02:04:19;102902.84;;;6.02;96.60
70900;BME280;67902;52.154;5.430;2024-01-25T02:06:46;102905.00;;;5.98;96.61
70900;BME280;67902;52.154;5.430;2024-01-25T02:09:13;102904.00;;;5.99;97.23
70900;BME280;67902;52.154;5.430;2024-01-25T02:11:40;102912.72;;;5.93;96.90
70900;BME280;67902;52.154;5.430;2024-01-25T02:14:07;102918.91;;;5.86;97.44
70900;BME280;67902;52.154;5.430;2024-01-25T02:16:38;102918.88;;;5.77;97.74
70900;BME280;67902;52.154;5.430;2024-01-25T02:19:05;102927.56;;;5.71;97.45
70900;BME280;67902;52.154;5.430;2024-01-25T02:21:31;102934.44;;;5.66;97.47
70900;BME280;67902;52.154;5.430;2024-01-25T02:23:58;102936.91;;;5.59;98.44
70900;BME280;67902;52.154;5.430;2024-01-25T02:26:25;102937.53;;;5.53;98.50
70900;BME280;67902;52.154;5.430;2024-01-25T02:28:51;102941.88;;;5.46;98.70
70900;BME280;67902;52.154;5.430;2024-01-25T02:31:21;102949.56;;;5.41;99.08
70900;BME280;67902;52.154;5.430;2024-01-25T02:33:47;102949.88;;;5.38;99.31
70900;BME280;67902;52.154;5.430;2024-01-25T02:36:14;102940.00;;;5.39;99.71
70900;BME280;67902;52.154;5.430;2024-01-25T02:38:40;102948.06;;;5.39;99.75
70900;BME280;67902;52.154;5.430;2024-01-25T02:41:07;102951.50;;;5.31;99.43
70900;BME280;67902;52.154;5.430;2024-01-25T02:43:33;102949.44;;;5.25;100.00
70900;BME280;67902;52.154;5.430;2024-01-25T02:46:00;102955.16;;;5.22;100.00
70900;BME280;67902;52.154;5.430;2024-01-25T02:48:27;102954.13;;;5.23;100.00
70900;BME280;67902;52.154;5.430;2024-01-25T02:50:54;102958.53;;;5.24;100.00
70900;BME280;67902;52.154;5.430;2024-01-25T02:53:20;102960.44;;;5.14;100.00
70900;BME280;67902;52.154;5.430;2024-01-25T02:55:47;102956.16;;;5.03;100.00
70900;BME280;67902;52.154;5.430;2024-01-25T02:58:13;102954.66;;;5.01;100.00
70900;BME280;67902;52.154;5.430;2024-01-25T03:00:40;102965.69;;;4.98;100.00
70900;BME280;67902;52.154;5.430;2024-01-25T03:03:07;102965.00;;;4.96;100.00
70900;BME280;67902;52.154;5.430;2024-01-25T03:05:33;102969.41;;;4.97;100.00
70900;BME280;67902;52.154;5.430;2024-01-25T03:08:01;102953.97;;;4.99;100.00
70900;BME280;67902;52.154;5.430;2024-01-25T03:10:27;102951.41;;;4.97;100.00
70900;BME280;67902;52.154;5.430;2024-01-25T03:12:54;102952.03;;;4.91;100.00
70900;BME280;67902;52.154;5.430;2024-01-25T03:15:20;102959.50;;;4.80;100.00
70900;BME280;67902;52.154;5.430;2024-01-25T03:17:47;102959.03;;;4.66;100.00
70900;BME280;67902;52.154;5.430;2024-01-25T03:20:14;102959.19;;;4.65;100.00
70900;BME280;67902;52.154;5.430;2024-01-25T03:22:41;102957.38;;;4.65;100.00
70900;BME280;67902;52.154;5.430;2024-01-25T03:25:08;102959.63;;;4.60;100.00
70900;BME280;67902;52.154;5.430;2024-01-25T03:27:35;102962.19;;;4.62;100.00
70900;BME280;67902;52.154;5.430;2024-01-25T03:30:02;102971.22;;;4.61;100.00
70900;BME280;67902;52.154;5.430;2024-01-25T03:32:29;102964.50;;;4.57;100.00
70900;BME280;67902;52.154;5.430;2024-01-25T03:34:58;102968.00;;;4.40;100.00
70900;BME280;67902;52.154;5.430;2024-01-25T03:37:24;102956.72;;;4.36;100.00
70900;BME280;67902;52.154;5.430;2024-01-25T03:39:51;102951.53;;;4.35;100.00
70900;BME280;67902;52.154;5.430;2024-01-25T03:42:18;102952.34;;;4.35;100.00
70900;BME280;67902;52.154;5.430;2024-01-25T03:44:44;102950.00;;;4.32;100.00
70900;BME280;67902;52.154;5.430;2024-01-25T03:47:12;102950.28;;;4.29;100.00
70900;BME280;67902;52.154;5.430;2024-01-25T03:49:39;102944.94;;;4.29;100.00
70900;BME280;67902;52.154;5.430;2024-01-25T03:52:05;102947.06;;;4.26;100.00
70900;BME280;67902;52.154;5.430;2024-01-25T03:54:32;102952.84;;;4.21;100.00
70900;BME280;67902;52.154;5.430;2024-01-25T03:56:58;102953.97;;;4.28;100.00
70900;BME280;67902;52.154;5.430;2024-01-25T03:59:25;102957.78;;;4.26;100.00
70900;BME280;67902;52.154;5.430;2024-01-25T04:01:51;102963.28;;;4.24;100.00
70900;BME280;67902;52.154;5.430;2024-01-25T04:04:19;102964.97;;;4.25;100.00
70900;BME280;67902;52.154;5.430;2024-01-25T04:06:48;102961.31;;;4.26;100.00
70900;BME280;67902;52.154;5.430;2024-01-25T04:09:15;102965.81;;;4.26;100.00
70900;BME280;67902;52.154;5.430;2024-01-25T04:11:41;102950.63;;;4.17;100.00
70900;BME280;67902;52.154;5.430;2024-01-25T04:14:08;102955.25;;;3.97;100.00
70900;BME280;67902;52.154;5.430;2024-01-25T04:16:35;102944.06;;;3.84;100.00
70900;BME280;67902;52.154;5.430;2024-01-25T04:19:01;102951.63;;;3.88;100.00
70900;BME280;67902;52.154;5.430;2024-01-25T04:21:28;102951.28;;;3.74;100.00
70900;BME280;67902;52.154;5.430;2024-01-25T04:23:55;102951.69;;;3.79;100.00
70900;BME280;67902;52.154;5.430;2024-01-25T04:26:22;102952.94;;;3.84;100.00
70900;BME280;67902;52.154;5.430;2024-01-25T04:28:48;102960.16;;;3.74;100.00
70900;BME280;67902;52.154;5.430;2024-01-25T04:31:16;102960.44;;;3.71;100.00
70900;BME280;67902;52.154;5.430;2024-01-25T04:33:43;102962.09;;;3.82;100.00
70900;BME280;67902;52.154;5.430;2024-01-25T04:36:14;102955.50;;;3.76;100.00
70900;BME280;67902;52.154;5.430;2024-01-25T04:38:41;102963.41;;;3.78;100.00
70900;BME280;67902;52.154;5.430;2024-01-25T04:41:07;102962.41;;;3.79;100.00
70900;BME280;67902;52.154;5.430;2024-01-25T04:43:34;102959.56;;;3.80;100.00
70900;BME280;67902;52.154;5.430;2024-01-25T04:46:04;102957.09;;;3.69;100.00
70900;BME280;67902;52.154;5.430;2024-01-25T04:48:31;102961.88;;;3.66;100.00
70900;BME280;67902;52.154;5.430;2024-01-25T04:50:59;102959.06;;;3.67;100.00
70900;BME280;67902;52.154;5.430;2024-01-25T04:53:26;102959.22;;;3.66;100.00
70900;BME280;67902;52.154;5.430;2024-01-25T04:55:55;102964.06;;;3.53;100.00
70900;BME280;67902;52.154;5.430;2024-01-25T04:58:23;102960.69;;;3.50;100.00
70900;BME280;67902;52.154;5.430;2024-01-25T05:00:49;102960.78;;;3.59;100.00
70900;BME280;67902;52.154;5.430;2024-01-25T05:03:18;102963.19;;;3.62;100.00
70900;BME280;67902;52.154;5.430;2024-01-25T05:05:47;102962.16;;;3.63;100.00
70900;BME280;67902;52.154;5.430;2024-01-25T05:08:13;102967.41;;;3.64;100.00
70900;BME280;67902;52.154;5.430;2024-01-25T05:10:41;102975.47;;;3.55;100.00
70900;BME280;67902;52.154;5.430;2024-01-25T05:13:08;102970.09;;;3.55;100.00
70900;BME280;67902;52.154;5.430;2024-01-25T05:15:36;102970.09;;;3.55;100.00
70900;BME280;67902;52.154;5.430;2024-01-25T05:18:02;102968.09;;;3.57;100.00
70900;BME280;67902;52.154;5.430;2024-01-25T05:20:29;102979.38;;;3.60;100.00
70900;BME280;67902;52.154;5.430;2024-01-25T05:23:00;102971.22;;;3.62;100.00
70900;BME280;67902;52.154;5.430;2024-01-25T05:25:27;102970.38;;;3.61;100.00
70900;BME280;67902;52.154;5.430;2024-01-25T05:27:55;102973.91;;;3.62;100.00
70900;BME280;67902;52.154;5.430;2024-01-25T05:30:22;102971.91;;;3.64;100.00
70900;BME280;67902;52.154;5.430;2024-01-25T05:32:49;102976.88;;;3.59;100.00
70900;BME280;67902;52.154;5.430;2024-01-25T05:35:18;102979.94;;;3.64;100.00
70900;BME280;67902;52.154;5.430;2024-01-25T05:37:45;102987.69;;;3.67;100.00
70900;BME280;67902;52.154;5.430;2024-01-25T05:40:11;102984.63;;;3.62;100.00
70900;BME280;67902;52.154;5.430;2024-01-25T05:42:39;102992.50;;;3.63;100.00
70900;BME280;67902;52.154;5.430;2024-01-25T05:45:07;102989.81;;;3.63;100.00
70900;BME280;67902;52.154;5.430;2024-01-25T05:47:35;102997.72;;;3.65;100.00
70900;BME280;67902;52.154;5.430;2024-01-25T05:50:02;102994.75;;;3.68;100.00
70900;BME280;67902;52.154;5.430;2024-01-25T05:52:30;103002.06;;;3.66;100.00
70900;BME280;67902;52.154;5.430;2024-01-25T05:54:56;102995.56;;;3.68;100.00
70900;BME280;67902;52.154;5.430;2024-01-25T05:57:24;102988.38;;;3.69;100.00
70900;BME280;67902;52.154;5.430;2024-01-25T05:59:51;102981.03;;;3.71;100.00
70900;BME280;67902;52.154;5.430;2024-01-25T06:02:17;102992.88;;;3.68;100.00
70900;BME280;67902;52.154;5.430;2024-01-25T06:04:44;102998.53;;;3.65;100.00
70900;BME280;67902;52.154;5.430;2024-01-25T06:07:10;102998.25;;;3.68;100.00
70900;BME280;67902;52.154;5.430;2024-01-25T06:09:37;103006.16;;;3.70;100.00
70900;BME280;67902;52.154;5.430;2024-01-25T06:12:04;103005.31;;;3.69;100.00
70900;BME280;67902;52.154;5.430;2024-01-25T06:14:31;103002.06;;;3.66;100.00
70900;BME280;67902;52.154;5.430;2024-01-25T06:16:58;103001.22;;;3.65;100.00
70900;BME280;67902;52.154;5.430;2024-01-25T06:19:24;102998.00;;;3.62;100.00
70900;BME280;67902;52.154;5.430;2024-01-25T06:21:51;103005.59;;;3.57;100.00
70900;BME280;67902;52.154;5.430;2024-01-25T06:24:17;103007.59;;;3.55;100.00
70900;BME280;67902;52.154;5.430;2024-01-25T06:26:44;103011.28;;;3.54;100.00
70900;BME280;67902;52.154;5.430;2024-01-25T06:29:11;103007.47;;;3.56;100.00
70900;BME280;67902;52.154;5.430;2024-01-25T06:31:42;103008.16;;;3.58;100.00
70900;BME280;67902;52.154;5.430;2024-01-25T06:34:10;103014.50;;;3.57;100.00
70900;BME280;67902;52.154;5.430;2024-01-25T06:36:37;103009.41;;;3.54;100.00
70900;BME280;67902;52.154;5.430;2024-01-25T06:39:04;103015.06;;;3.51;100.00
70900;BME280;67902;52.154;5.430;2024-01-25T06:41:31;103017.75;;;3.51;100.00
70900;BME280;67902;52.154;5.430;2024-01-25T06:43:58;103017.75;;;3.51;100.00
70900;BME280;67902;52.154;5.430;2024-01-25T06:46:25;103027.06;;;3.47;100.00
70900;BME280;67902;52.154;5.430;2024-01-25T06:48:52;103023.69;;;3.45;100.00
70900;BME280;67902;52.154;5.430;2024-01-25T06:51:19;103013.41;;;3.40;100.00
70900;BME280;67902;52.154;5.430;2024-01-25T06:53:45;103013.00;;;3.45;100.00
70900;BME280;67902;52.154;5.430;2024-01-25T06:56:13;103017.50;;;3.44;100.00
70900;BME280;67902;52.154;5.430;2024-01-25T06:58:39;103025.66;;;3.43;100.00
70900;BME280;67902;52.154;5.430;2024-01-25T07:01:06;103022.97;;;3.43;100.00
70900;BME280;67902;52.154;5.430;2024-01-25T07:03:33;103028.22;;;3.44;100.00
70900;BME280;67902;52.154;5.430;2024-01-25T07:06:00;103030.16;;;3.42;100.00
70900;BME280;67902;52.154;5.430;2024-01-25T07:08:27;103026.22;;;3.46;100.00
70900;BME280;67902;52.154;5.430;2024-01-25T07:10:53;103020.88;;;3.46;100.00
70900;BME280;67902;52.154;5.430;2024-01-25T07:13:22;103017.63;;;3.43;100.00
70900;BME280;67902;52.154;5.430;2024-01-25T07:15:49;103015.97;;;3.32;100.00
70900;BME280;67902;52.154;5.430;2024-01-25T07:18:16;103017.53;;;3.25;100.00
70900;BME280;67902;52.154;5.430;2024-01-25T07:20:43;103016.69;;;3.25;100.00
70900;BME280;67902;52.154;5.430;2024-01-25T07:23:11;103033.59;;;3.25;100.00
70900;BME280;67902;52.154;5.430;2024-01-25T07:25:37;103030.63;;;3.28;100.00
70900;BME280;67902;52.154;5.430;2024-01-25T07:28:04;103032.72;;;3.34;100.00
70900;BME280;67902;52.154;5.430;2024-01-25T07:30:30;103038.78;;;3.36;100.00
70900;BME280;67902;52.154;5.430;2024-01-25T07:32:57;103031.03;;;3.33;100.00
70900;BME280;67902;52.154;5.430;2024-01-25T07:35:25;103024.84;;;3.33;100.00
70900;BME280;67902;52.154;5.430;2024-01-25T07:37:52;103017.38;;;3.36;100.00
70900;BME280;67902;52.154;5.430;2024-01-25T07:40:19;103016.09;;;3.40;100.00
70900;BME280;67902;52.154;5.430;2024-01-25T07:42:48;103008.31;;;3.47;100.00
70900;BME280;67902;52.154;5.430;2024-01-25T07:45:17;103017.63;;;3.53;100.00
70900;BME280;67902;52.154;5.430;2024-01-25T07:47:44;103017.44;;;3.64;100.00
70900;BME280;67902;52.154;5.430;2024-01-25T07:50:11;103014.59;;;3.65;100.00
70900;BME280;67902;52.154;5.430;2024-01-25T07:52:38;103008.97;;;3.68;100.00
70900;BME280;67902;52.154;5.430;2024-01-25T07:55:05;103011.81;;;3.67;100.00
70900;BME280;67902;52.154;5.430;2024-01-25T07:57:32;103008.16;;;3.68;100.00
70900;BME280;67902;52.154;5.430;2024-01-25T07:59:59;103011.81;;;3.67;100.00
70900;BME280;67902;52.154;5.430;2024-01-25T08:02:25;103013.50;;;3.68;100.00
70900;BME280;67902;52.154;5.430;2024-01-25T08:04:52;103008.16;;;3.68;100.00
70900;BME280;67902;52.154;5.430;2024-01-25T08:07:19;103012.75;;;3.75;100.00
70900;BME280;67902;52.154;5.430;2024-01-25T08:09:49;103015.69;;;3.82;100.00
70900;BME280;67902;52.154;5.430;2024-01-25T08:12:18;103027.69;;;3.87;100.00
70900;BME280;67902;52.154;5.430;2024-01-25T08:14:44;103034.28;;;3.93;100.00
70900;BME280;67902;52.154;5.430;2024-01-25T08:17:11;103039.75;;;4.01;100.00
70900;BME280;67902;52.154;5.430;2024-01-25T08:19:38;103034.50;;;4.09;100.00
70900;BME280;67902;52.154;5.430;2024-01-25T08:22:05;103046.00;;;4.19;100.00
70900;BME280;67902;52.154;5.430;2024-01-25T08:24:31;103047.22;;;4.34;100.00
70900;BME280;67902;52.154;5.430;2024-01-25T08:26:58;103047.59;;;4.39;100.00
70900;BME280;67902;52.154;5.430;2024-01-25T08:29:24;103048.19;;;4.33;100.00
70900;BME280;67902;52.154;5.430;2024-01-25T08:31:51;103037.47;;;4.33;100.00
70900;BME280;67902;52.154;5.430;2024-01-25T08:34:18;103041.09;;;4.42;100.00
70900;BME280;67902;52.154;5.430;2024-01-25T08:36:45;103037.16;;;4.63;100.00
70900;BME280;67902;52.154;5.430;2024-01-25T08:39:11;103030.66;;;4.84;100.00
70900;BME280;67902;52.154;5.430;2024-01-25T08:41:38;103041.72;;;5.16;100.00
70900;BME280;67902;52.154;5.430;2024-01-25T08:44:07;103039.00;;;5.59;100.00
70900;BME280;67902;52.154;5.430;2024-01-25T08:46:34;103041.81;;;6.01;100.00
70900;BME280;67902;52.154;5.430;2024-01-25T08:49:00;103040.97;;;6.01;100.00
70900;BME280;67902;52.154;5.430;2024-01-25T08:51:28;103043.41;;;6.12;100.00
70900;BME280;67902;52.154;5.430;2024-01-25T08:53:55;103046.81;;;6.22;100.00
70900;BME280;67902;52.154;5.430;2024-01-25T08:56:21;103052.72;;;6.25;100.00
70900;BME280;67902;52.154;5.430;2024-01-25T08:58:48;103051.41;;;6.37;100.00
70900;BME280;67902;52.154;5.430;2024-01-25T09:01:16;103042.38;;;6.47;100.00
70900;BME280;67902;52.154;5.430;2024-01-25T09:03:42;103041.72;;;6.53;100.00
70900;BME280;67902;52.154;5.430;2024-01-25T09:06:09;103033.88;;;6.75;100.00
70900;BME280;67902;52.154;5.430;2024-01-25T09:08:36;103040.00;;;7.02;100.00
70900;BME280;67902;52.154;5.430;2024-01-25T09:11:03;103038.09;;;7.58;99.93
70900;BME280;67902;52.154;5.430;2024-01-25T09:13:30;103043.50;;;7.67;97.85
70900;BME280;67902;52.154;5.430;2024-01-25T09:15:57;103058.84;;;7.26;98.36
70900;BME280;67902;52.154;5.430;2024-01-25T09:18:23;103051.88;;;6.83;98.37
70900;BME280;67902;52.154;5.430;2024-01-25T09:20:50;103066.16;;;6.59;99.25
70900;BME280;67902;52.154;5.430;2024-01-25T09:23:19;103070.69;;;6.59;100.00
70900;BME280;67902;52.154;5.430;2024-01-25T09:25:46;103059.38;;;6.55;99.82
70900;BME280;67902;52.154;5.430;2024-01-25T09:28:13;103058.38;;;6.48;100.00
70900;BME280;67902;52.154;5.430;2024-01-25T09:30:40;103061.53;;;6.43;100.00
70900;BME280;67902;52.154;5.430;2024-01-25T09:33:07;103057.00;;;6.44;100.00
70900;BME280;67902;52.154;5.430;2024-01-25T09:35:34;103050.28;;;6.48;100.00
70900;BME280;67902;52.154;5.430;2024-01-25T09:38:01;103043.88;;;6.49;100.00
70900;BME280;67902;52.154;5.430;2024-01-25T09:40:28;103034.81;;;6.50;100.00
70900;BME280;67902;52.154;5.430;2024-01-25T09:42:55;103041.53;;;6.54;100.00
70900;BME280;67902;52.154;5.430;2024-01-25T09:45:24;103043.56;;;6.52;100.00
70900;BME280;67902;52.154;5.430;2024-01-25T09:47:50;103049.28;;;6.57;100.00
70900;BME280;67902;52.154;5.430;2024-01-25T09:50:18;103054.56;;;6.67;100.00
70900;BME280;67902;52.154;5.430;2024-01-25T09:52:50;103059.09;;;6.74;100.00
70900;BME280;67902;52.154;5.430;2024-01-25T09:55:19;103056.16;;;7.66;100.00
70900;BME280;67902;52.154;5.430;2024-01-25T09:57:54;103055.06;;;7.99;98.88
70900;BME280;67902;52.154;5.430;2024-01-25T10:00:26;103045.34;;;8.68;98.97
70900;BME280;67902;52.154;5.430;2024-01-25T10:02:56;103029.75;;;10.13;91.46
70900;BME280;67902;52.154;5.430;2024-01-25T10:05:23;103014.25;;;11.14;86.02
70900;BME280;67902;52.154;5.430;2024-01-25T10:07:50;103020.63;;;11.77;80.41
70900;BME280;67902;52.154;5.430;2024-01-25T10:10:17;103013.41;;;11.14;80.04
70900;BME280;67902;52.154;5.430;2024-01-25T10:12:43;103010.94;;;10.76;81.27
70900;BME280;67902;52.154;5.430;2024-01-25T10:15:10;103031.16;;;10.74;81.39
70900;BME280;67902;52.154;5.430;2024-01-25T10:17:38;103035.53;;;10.75;81.48
70900;BME280;67902;52.154;5.430;2024-01-25T10:20:25;103036.31;;;10.90;82.14
70900;BME280;67902;52.154;5.430;2024-01-25T10:22:55;103027.94;;;10.85;79.90
70900;BME280;67902;52.154;5.430;2024-01-25T10:25:25;103027.47;;;10.45;80.54
70900;BME280;67902;52.154;5.430;2024-01-25T10:27:52;103034.63;;;9.80;82.70
70900;BME280;67902;52.154;5.430;2024-01-25T10:30:19;103040.50;;;9.69;84.48
70900;BME280;67902;52.154;5.430;2024-01-25T10:32:48;103034.44;;;9.67;84.55
70900;BME280;67902;52.154;5.430;2024-01-25T10:35:18;103020.72;;;9.54;85.01
70900;BME280;67902;52.154;5.430;2024-01-25T10:37:54;103023.63;;;9.29;85.75
70900;BME280;67902;52.154;5.430;2024-01-25T10:40:21;103025.91;;;9.18;86.82
70900;BME280;67902;52.154;5.430;2024-01-25T10:42:49;103008.56;;;9.12;87.46
70900;BME280;67902;52.154;5.430;2024-01-25T10:45:19;103026.53;;;8.83;87.96
70900;BME280;67902;52.154;5.430;2024-01-25T10:47:49;103019.38;;;8.67;89.42
70900;BME280;67902;52.154;5.430;2024-01-25T10:50:17;103023.19;;;8.81;90.24
70900;BME280;67902;52.154;5.430;2024-01-25T10:52:45;103023.84;;;9.05;90.26
70900;BME280;67902;52.154;5.430;2024-01-25T10:55:13;103014.63;;;9.52;88.00
70900;BME280;67902;52.154;5.430;2024-01-25T10:57:44;103009.44;;;9.50;88.14
70900;BME280;67902;52.154;5.430;2024-01-25T11:00:15;103003.66;;;9.16;87.91
70900;BME280;67902;52.154;5.430;2024-01-25T11:02:44;103011.09;;;8.91;89.25
70900;BME280;67902;52.154;5.430;2024-01-25T11:05:12;103017.47;;;8.98;89.42
70900;BME280;67902;52.154;5.430;2024-01-25T11:07:44;103000.16;;;8.85;88.98
70900;BME280;67902;52.154;5.430;2024-01-25T11:10:14;102983.38;;;8.74;90.02
70900;BME280;67902;52.154;5.430;2024-01-25T11:12:59;102976.75;;;8.77;89.97
70900;BME280;67902;52.154;5.430;2024-01-25T11:17:57;102974.00;;;9.08;90.00
70900;BME280;67902;52.154;5.430;2024-01-25T11:20:26;102969.50;;;9.00;89.19
70900;BME280;67902;52.154;5.430;2024-01-25T11:22:57;102953.41;;;9.21;90.11
70900;BME280;67902;52.154;5.430;2024-01-25T11:25:32;102967.88;;;8.91;89.91
70900;BME280;67902;52.154;5.430;2024-01-25T11:28:03;102970.38;;;8.93;89.91
70900;BME280;67902;52.154;5.430;2024-01-25T11:30:34;102969.56;;;9.15;89.05
70900;BME280;67902;52.154;5.430;2024-01-25T11:33:04;102968.22;;;9.11;89.25
70900;BME280;67902;52.154;5.430;2024-01-25T11:35:31;102962.66;;;8.90;88.43
70900;BME280;67902;52.154;5.430;2024-01-25T11:37:58;102954.06;;;8.63;88.59
70900;BME280;67902;52.154;5.430;2024-01-25T11:40:26;102937.63;;;8.50;89.95
70900;BME280;67902;52.154;5.430;2024-01-25T11:42:57;102940.38;;;8.42;90.40
70900;BME280;67902;52.154;5.430;2024-01-25T11:45:24;102936.44;;;8.53;90.70
70900;BME280;67902;52.154;5.430;2024-01-25T11:47:53;102940.75;;;8.62;91.02
70900;BME280;67902;52.154;5.430;2024-01-25T11:50:22;102936.53;;;8.59;90.53
70900;BME280;67902;52.154;5.430;2024-01-25T11:52:49;102940.03;;;8.68;91.43
70900;BME280;67902;52.154;5.430;2024-01-25T11:55:17;102917.13;;;8.64;90.57
70900;BME280;67902;52.154;5.430;2024-01-25T11:57:43;102906.66;;;8.61;90.22
70900;BME280;67902;52.154;5.430;2024-01-25T12:00:13;102907.44;;;8.47;91.56
70900;BME280;67902;52.154;5.430;2024-01-25T12:02:40;102902.91;;;8.47;92.29
70900;BME280;67902;52.154;5.430;2024-01-25T12:05:10;102898.63;;;8.53;92.10
70900;BME280;67902;52.154;5.430;2024-01-25T12:07:38;102909.72;;;8.58;91.05
70900;BME280;67902;52.154;5.430;2024-01-25T12:10:15;102913.78;;;8.54;91.46
70900;BME280;67902;52.154;5.430;2024-01-25T12:12:42;102909.09;;;8.48;91.21
70900;BME280;67902;52.154;5.430;2024-01-25T12:15:09;102901.41;;;8.45;91.96
70900;BME280;67902;52.154;5.430;2024-01-25T12:17:36;102894.19;;;8.60;91.64
70900;BME280;67902;52.154;5.430;2024-01-25T12:20:04;102888.72;;;8.68;91.73
70900;BME280;67902;52.154;5.430;2024-01-25T12:22:37;102884.00;;;8.70;92.32
70900;BME280;67902;52.154;5.430;2024-01-25T12:25:08;102884.38;;;8.82;91.49
70900;BME280;67902;52.154;5.430;2024-01-25T12:27:40;102903.91;;;9.06;91.49
70900;BME280;67902;52.154;5.430;2024-01-25T12:30:12;102887.72;;;9.06;90.51
70900;BME280;67902;52.154;5.430;2024-01-25T12:32:38;102884.97;;;8.92;90.84
70900;BME280;67902;52.154;5.430;2024-01-25T12:35:05;102880.00;;;8.81;91.20
70900;BME280;67902;52.154;5.430;2024-01-25T12:37:33;102884.94;;;8.77;91.69
70900;BME280;67902;52.154;5.430;2024-01-25T12:40:03;102878.19;;;8.73;92.42
70900;BME280;67902;52.154;5.430;2024-01-25T12:42:30;102885.47;;;8.72;92.42
70900;BME280;67902;52.154;5.430;2024-01-25T12:44:57;102883.56;;;8.81;91.95
70900;BME280;67902;52.154;5.430;2024-01-25T12:47:24;102873.44;;;8.98;91.52
70900;BME280;67902;52.154;5.430;2024-01-25T12:49:51;102869.03;;;8.97;90.99
70900;BME280;67902;52.154;5.430;2024-01-25T12:52:18;102866.16;;;8.98;91.45
70900;BME280;67902;52.154;5.430;2024-01-25T12:54:45;102863.63;;;8.97;92.55
70900;BME280;67902;52.154;5.430;2024-01-25T12:57:11;102853.19;;;8.94;92.28
70900;BME280;67902;52.154;5.430;2024-01-25T12:59:38;102838.56;;;8.88;91.19